sensor_id;sensor_type;location;lat;lon;timestamp;pressure;altitude;pressure_sealevel;temperature;humidity
33422;BME280;19763;55.798;37.782;2023-04-06T00:01:45;148902.88;;;6.36;75.65
33422;BME280;19763;55.798;37.782;2023-04-06T00:04:12;148881.16;;;6.27;75.38
33422;BME280;19763;55.798;37.782;2023-04-06T00:06:37;148887.50;;;6.30;75.20
33422;BME280;19763;55.798;37.782;2023-04-06T00:09:03;148837.66;;;6.10;76.09
33422;BME280;19763;55.798;37.782;2023-04-06T00:11:29;148860.69;;;6.19;76.03
33422;BME280;19763;55.798;37.782;2023-04-06T00:13:54;148844.06;;;6.12;75.91
33422;BME280;19763;55.798;37.782;2023-04-06T00:16:20;148855.56;;;6.17;76.02
33422;BME280;19763;55.798;37.782;2023-04-06T00:18:46;148867.09;;;6.21;75.83
33422;BME280;19763;55.798;37.782;2023-04-06T00:21:12;148867.09;;;6.21;76.26
33422;BME280;19763;55.798;37.782;2023-04-06T00:23:38;148855.56;;;6.17;75.93
33422;BME280;19763;55.798;37.782;2023-04-06T00:26:04;148860.69;;;6.19;76.35
33422;BME280;19763;55.798;37.782;2023-04-06T00:28:30;148814.69;;;6.00;76.38
33422;BME280;19763;55.798;37.782;2023-04-06T00:30:56;148831.31;;;6.07;76.37
33422;BME280;19763;55.798;37.782;2023-04-06T00:33:22;148831.31;;;6.07;76.37
33422;BME280;19763;55.798;37.782;2023-04-06T00:35:48;148823.63;;;6.04;76.70
33422;BME280;19763;55.798;37.782;2023-04-06T00:38:14;148861.97;;;6.19;76.26
33422;BME280;19763;55.798;37.782;2023-04-06T00:40:41;148815.97;;;6.01;76.50
33422;BME280;19763;55.798;37.782;2023-04-06T00:43:07;148833.84;;;6.08;76.57
33422;BME280;19763;55.798;37.782;2023-04-06T00:45:35;148828.75;;;6.06;76.41
33422;BME280;19763;55.798;37.782;2023-04-06T00:48:00;148832.59;;;6.08;76.24
33422;BME280;19763;55.798;37.782;2023-04-06T00:50:27;148832.59;;;6.08;76.04
33422;BME280;19763;55.798;37.782;2023-04-06T00:52:54;148847.91;;;6.14;75.98
33422;BME280;19763;55.798;37.782;2023-04-06T00:55:20;148815.97;;;6.01;76.46
33422;BME280;19763;55.798;37.782;2023-04-06T00:57:46;148836.41;;;6.09;76.10
33422;BME280;19763;55.798;37.782;2023-04-06T01:00:13;148835.16;;;6.09;76.15
33422;BME280;19763;55.798;37.782;2023-04-06T01:02:39;148773.75;;;5.84;77.12
33422;BME280;19763;55.798;37.782;2023-04-06T01:05:05;148808.28;;;5.98;76.33
33422;BME280;19763;55.798;37.782;2023-04-06T01:07:30;148800.59;;;5.95;76.77
33422;BME280;19763;55.798;37.782;2023-04-06T01:09:57;148775.03;;;5.84;76.44
33422;BME280;19763;55.798;37.782;2023-04-06T01:12:23;148790.38;;;5.91;76.50
33422;BME280;19763;55.798;37.782;2023-04-06T01:14:49;148781.41;;;5.87;76.86
33422;BME280;19763;55.798;37.782;2023-04-06T01:17:14;148773.75;;;5.84;76.57
33422;BME280;19763;55.798;37.782;2023-04-06T01:19:40;148785.22;;;5.88;76.50
33422;BME280;19763;55.798;37.782;2023-04-06T01:22:06;148761.00;;;5.79;77.05
33422;BME280;19763;55.798;37.782;2023-04-06T01:24:32;148732.88;;;5.67;77.11
33422;BME280;19763;55.798;37.782;2023-04-06T01:26:58;148758.44;;;5.78;77.10
33422;BME280;19763;55.798;37.782;2023-04-06T01:29:25;148749.47;;;5.74;77.21
33422;BME280;19763;55.798;37.782;2023-04-06T01:31:51;148752.03;;;5.75;77.20
33422;BME280;19763;55.798;37.782;2023-04-06T01:34:17;148704.78;;;5.56;77.72
33422;BME280;19763;55.798;37.782;2023-04-06T01:36:43;148740.53;;;5.70;77.50
33422;BME280;19763;55.798;37.782;2023-04-06T01:39:08;148753.28;;;5.76;77.37
33422;BME280;19763;55.798;37.782;2023-04-06T01:41:34;148758.44;;;5.78;77.16
33422;BME280;19763;55.798;37.782;2023-04-06T01:44:01;148723.91;;;5.64;77.50
33422;BME280;19763;55.798;37.782;2023-04-06T01:46:27;148713.69;;;5.60;77.86
33422;BME280;19763;55.798;37.782;2023-04-06T01:48:52;148721.34;;;5.63;77.52
33422;BME280;19763;55.798;37.782;2023-04-06T01:51:18;148721.34;;;5.63;77.88
33422;BME280;19763;55.798;37.782;2023-04-06T01:53:43;148717.53;;;5.61;77.70
33422;BME280;19763;55.798;37.782;2023-04-06T01:56:09;148699.66;;;5.54;77.74
33422;BME280;19763;55.798;37.782;2023-04-06T01:58:35;148666.47;;;5.41;77.92
33422;BME280;19763;55.798;37.782;2023-04-06T02:01:01;148675.38;;;5.44;78.03
33422;BME280;19763;55.798;37.782;2023-04-06T02:03:26;148675.38;;;5.44;78.05
33422;BME280;19763;55.798;37.782;2023-04-06T02:05:52;148640.91;;;5.30;78.73
33422;BME280;19763;55.798;37.782;2023-04-06T02:08:18;148684.34;;;5.48;78.08
33422;BME280;19763;55.798;37.782;2023-04-06T02:10:43;148671.53;;;5.43;77.90
33422;BME280;19763;55.798;37.782;2023-04-06T02:13:09;148663.88;;;5.40;77.84
33422;BME280;19763;55.798;37.782;2023-04-06T02:15:35;148702.22;;;5.55;77.82
33422;BME280;19763;55.798;37.782;2023-04-06T02:18:00;148686.91;;;5.49;77.86
33422;BME280;19763;55.798;37.782;2023-04-06T02:20:26;148643.44;;;5.31;78.06
33422;BME280;19763;55.798;37.782;2023-04-06T02:22:52;148637.09;;;5.29;77.83
33422;BME280;19763;55.798;37.782;2023-04-06T02:25:17;148635.78;;;5.28;78.19
33422;BME280;19763;55.798;37.782;2023-04-06T02:27:43;148649.84;;;5.34;78.48
33422;BME280;19763;55.798;37.782;2023-04-06T02:30:09;148600.03;;;5.14;78.66
33422;BME280;19763;55.798;37.782;2023-04-06T02:32:35;148653.66;;;5.35;77.87
33422;BME280;19763;55.798;37.782;2023-04-06T02:35:00;148574.50;;;5.04;78.61
33422;BME280;19763;55.798;37.782;2023-04-06T02:37:26;148597.47;;;5.13;78.85
33422;BME280;19763;55.798;37.782;2023-04-06T02:39:51;148589.81;;;5.10;79.14
33422;BME280;19763;55.798;37.782;2023-04-06T02:42:17;148600.03;;;5.14;78.34
33422;BME280;19763;55.798;37.782;2023-04-06T02:44:43;148594.94;;;5.12;78.88
33422;BME280;19763;55.798;37.782;2023-04-06T02:47:09;148620.47;;;5.22;78.15
33422;BME280;19763;55.798;37.782;2023-04-06T02:49:35;148605.16;;;5.16;77.95
33422;BME280;19763;55.798;37.782;2023-04-06T02:52:01;148586.00;;;5.08;78.66
33422;BME280;19763;55.798;37.782;2023-04-06T02:54:27;148601.28;;;5.14;78.53
33422;BME280;19763;55.798;37.782;2023-04-06T02:56:53;148594.94;;;5.12;78.27
33422;BME280;19763;55.798;37.782;2023-04-06T02:59:18;148610.25;;;5.18;78.22
33422;BME280;19763;55.798;37.782;2023-04-06T03:01:44;148592.38;;;5.11;78.63
33422;BME280;19763;55.798;37.782;2023-04-06T03:04:10;148597.47;;;5.13;78.12
33422;BME280;19763;55.798;37.782;2023-04-06T03:06:36;148573.25;;;5.03;78.34
33422;BME280;19763;55.798;37.782;2023-04-06T03:09:02;148612.81;;;5.19;78.58
33422;BME280;19763;55.798;37.782;2023-04-06T03:11:27;148605.16;;;5.16;78.14
33422;BME280;19763;55.798;37.782;2023-04-06T03:13:53;148630.69;;;5.26;78.00
33422;BME280;19763;55.798;37.782;2023-04-06T03:16:19;148629.38;;;5.26;77.33
33422;BME280;19763;55.798;37.782;2023-04-06T03:18:44;148630.69;;;5.26;77.87
33422;BME280;19763;55.798;37.782;2023-04-06T03:21:10;148598.78;;;5.13;78.02
33422;BME280;19763;55.798;37.782;2023-04-06T03:23:36;148520.91;;;4.82;78.82
33422;BME280;19763;55.798;37.782;2023-04-06T03:26:02;148568.13;;;5.01;78.96
33422;BME280;19763;55.798;37.782;2023-04-06T03:28:29;148587.25;;;5.09;78.89
33422;BME280;19763;55.798;37.782;2023-04-06T03:30:54;148541.28;;;4.90;78.36
33422;BME280;19763;55.798;37.782;2023-04-06T03:33:20;148579.59;;;5.06;78.60
33422;BME280;19763;55.798;37.782;2023-04-06T03:35:45;148509.38;;;4.77;78.69
33422;BME280;19763;55.798;37.782;2023-04-06T03:38:12;148591.13;;;5.10;78.13
33422;BME280;19763;55.798;37.782;2023-04-06T03:40:38;148547.69;;;4.93;78.14
33422;BME280;19763;55.798;37.782;2023-04-06T03:43:04;148561.72;;;4.98;78.60
33422;BME280;19763;55.798;37.782;2023-04-06T03:45:30;148574.50;;;5.04;78.42
33422;BME280;19763;55.798;37.782;2023-04-06T03:47:55;148597.47;;;5.13;78.05
33422;BME280;19763;55.798;37.782;2023-04-06T03:50:21;148577.06;;;5.05;78.23
33422;BME280;19763;55.798;37.782;2023-04-06T03:52:47;148606.44;;;5.16;77.78
33422;BME280;19763;55.798;37.782;2023-04-06T03:55:12;148620.47;;;5.22;77.56
33422;BME280;19763;55.798;37.782;2023-04-06T03:57:38;148577.06;;;5.05;78.01
33422;BME280;19763;55.798;37.782;2023-04-06T04:00:04;148614.09;;;5.19;77.61
33422;BME280;19763;55.798;37.782;2023-04-06T04:02:30;148603.88;;;5.15;77.68
33422;BME280;19763;55.798;37.782;2023-04-06T04:04:56;148594.94;;;5.12;77.75
33422;BME280;19763;55.798;37.782;2023-04-06T04:07:21;148564.28;;;4.99;77.29
33422;BME280;19763;55.798;37.782;2023-04-06T04:09:47;148610.25;;;5.18;77.12
33422;BME280;19763;55.798;37.782;2023-04-06T04:12:12;148624.31;;;5.24;77.23
33422;BME280;19763;55.798;37.782;2023-04-06T04:14:40;148628.13;;;5.25;76.95
33422;BME280;19763;55.798;37.782;2023-04-06T04:17:05;148591.13;;;5.10;77.66
33422;BME280;19763;55.798;37.782;2023-04-06T04:19:31;148623.03;;;5.23;77.43
33422;BME280;19763;55.798;37.782;2023-04-06T04:21:56;148666.47;;;5.41;76.40
33422;BME280;19763;55.798;37.782;2023-04-06T04:24:22;148672.84;;;5.43;76.39
33422;BME280;19763;55.798;37.782;2023-04-06T04:26:48;148697.13;;;5.53;76.13
33422;BME280;19763;55.798;37.782;2023-04-06T04:29:13;148681.75;;;5.47;76.45
33422;BME280;19763;55.798;37.782;2023-04-06T04:31:39;148690.72;;;5.50;76.19
33422;BME280;19763;55.798;37.782;2023-04-06T04:34:05;148736.72;;;5.69;75.60
33422;BME280;19763;55.798;37.782;2023-04-06T04:36:32;148681.75;;;5.47;75.15
33422;BME280;19763;55.798;37.782;2023-04-06T04:38:58;148732.88;;;5.67;75.28
33422;BME280;19763;55.798;37.782;2023-04-06T04:41:26;148766.09;;;5.81;74.96
33422;BME280;19763;55.798;37.782;2023-04-06T04:43:52;148786.53;;;5.89;74.94
33422;BME280;19763;55.798;37.782;2023-04-06T04:46:17;148782.72;;;5.87;74.64
33422;BME280;19763;55.798;37.782;2023-04-06T04:48:43;148791.63;;;5.91;74.06
33422;BME280;19763;55.798;37.782;2023-04-06T04:51:08;148749.47;;;5.74;74.62
33422;BME280;19763;55.798;37.782;2023-04-06T04:53:34;148785.22;;;5.88;74.09
33422;BME280;19763;55.798;37.782;2023-04-06T04:56:01;148749.47;;;5.74;74.87
33422;BME280;19763;55.798;37.782;2023-04-06T04:58:26;148717.53;;;5.61;74.94
33422;BME280;19763;55.798;37.782;2023-04-06T05:00:52;148735.41;;;5.68;74.75
33422;BME280;19763;55.798;37.782;2023-04-06T05:03:25;148789.09;;;5.90;74.11
33422;BME280;19763;55.798;37.782;2023-04-06T05:05:52;148814.69;;;6.00;74.01
33422;BME280;19763;55.798;37.782;2023-04-06T05:08:18;148835.16;;;6.09;73.28
33422;BME280;19763;55.798;37.782;2023-04-06T05:10:44;148804.41;;;5.96;73.36
33422;BME280;19763;55.798;37.782;2023-04-06T05:13:10;148891.34;;;6.31;72.90
33422;BME280;19763;55.798;37.782;2023-04-06T05:15:36;148911.81;;;6.39;72.47
33422;BME280;19763;55.798;37.782;2023-04-06T05:18:07;148929.69;;;6.47;71.88
33422;BME280;19763;55.798;37.782;2023-04-06T05:20:33;148915.63;;;6.41;71.39
33422;BME280;19763;55.798;37.782;2023-04-06T05:23:00;148951.41;;;6.55;71.84
33422;BME280;19763;55.798;37.782;2023-04-06T05:25:25;148964.22;;;6.61;71.08
33422;BME280;19763;55.798;37.782;2023-04-06T05:27:52;148927.16;;;6.46;71.07
33422;BME280;19763;55.798;37.782;2023-04-06T05:30:17;148982.13;;;6.68;70.92
33422;BME280;19763;55.798;37.782;2023-04-06T05:32:43;149044.78;;;6.93;70.63
33422;BME280;19763;55.798;37.782;2023-04-06T05:35:10;149010.25;;;6.79;70.14
33422;BME280;19763;55.798;37.782;2023-04-06T05:37:36;148977.03;;;6.66;70.75
33422;BME280;19763;55.798;37.782;2023-04-06T05:40:02;148960.38;;;6.59;71.06
33422;BME280;19763;55.798;37.782;2023-04-06T05:42:39;149056.28;;;6.98;69.81
33422;BME280;19763;55.798;37.782;2023-04-06T05:45:08;149150.94;;;7.36;68.34
33422;BME280;19763;55.798;37.782;2023-04-06T05:47:35;149285.28;;;7.90;66.97
33422;BME280;19763;55.798;37.782;2023-04-06T05:50:00;149412.03;;;8.41;65.79
33422;BME280;19763;55.798;37.782;2023-04-06T05:52:26;149438.94;;;8.52;65.19
33422;BME280;19763;55.798;37.782;2023-04-06T05:54:52;149331.38;;;8.08;64.69
33422;BME280;19763;55.798;37.782;2023-04-06T05:57:17;149428.69;;;8.48;65.05
33422;BME280;19763;55.798;37.782;2023-04-06T05:59:43;149542.66;;;8.93;64.99
33422;BME280;19763;55.798;37.782;2023-04-06T06:02:09;149574.66;;;9.06;63.19
33422;BME280;19763;55.798;37.782;2023-04-06T06:04:35;149565.72;;;9.03;61.90
33422;BME280;19763;55.798;37.782;2023-04-06T06:07:00;149609.25;;;9.20;62.33
33422;BME280;19763;55.798;37.782;2023-04-06T06:09:26;149731.03;;;9.69;61.03
33422;BME280;19763;55.798;37.782;2023-04-06T06:11:52;149775.84;;;9.87;60.06
33422;BME280;19763;55.798;37.782;2023-04-06T06:14:17;149725.88;;;9.67;59.63
33422;BME280;19763;55.798;37.782;2023-04-06T06:16:43;149766.91;;;9.83;60.67
33422;BME280;19763;55.798;37.782;2023-04-06T06:19:09;149801.47;;;9.97;60.16
33422;BME280;19763;55.798;37.782;2023-04-06T06:21:34;149854.03;;;10.18;59.61
33422;BME280;19763;55.798;37.782;2023-04-06T06:24:00;149834.84;;;10.11;59.06
33422;BME280;19763;55.798;37.782;2023-04-06T06:26:26;149819.41;;;10.05;59.28
33422;BME280;19763;55.798;37.782;2023-04-06T06:28:51;149925.88;;;10.47;59.04
33422;BME280;19763;55.798;37.782;2023-04-06T06:31:17;149987.47;;;10.72;57.54
33422;BME280;19763;55.798;37.782;2023-04-06T06:33:46;150042.59;;;10.94;56.80
33422;BME280;19763;55.798;37.782;2023-04-06T06:36:13;150041.34;;;10.94;55.48
33422;BME280;19763;55.798;37.782;2023-04-06T06:38:38;149992.59;;;10.74;56.38
33422;BME280;19763;55.798;37.782;2023-04-06T06:41:04;150194.03;;;11.55;55.39
33422;BME280;19763;55.798;37.782;2023-04-06T06:43:30;150219.69;;;11.65;53.06
33422;BME280;19763;55.798;37.782;2023-04-06T06:45:55;150367.38;;;12.24;52.75
33422;BME280;19763;55.798;37.782;2023-04-06T06:48:21;150245.34;;;11.75;52.30
33422;BME280;19763;55.798;37.782;2023-04-06T06:50:47;150228.69;;;11.69;53.79
33422;BME280;19763;55.798;37.782;2023-04-06T06:53:13;150429.00;;;12.49;52.40
33422;BME280;19763;55.798;37.782;2023-04-06T06:55:40;150488.13;;;12.73;51.61
33422;BME280;19763;55.798;37.782;2023-04-06T06:58:05;150534.38;;;12.91;50.62
33422;BME280;19763;55.798;37.782;2023-04-06T07:00:32;150480.41;;;12.70;50.51
33422;BME280;19763;55.798;37.782;2023-04-06T07:02:57;150605.03;;;13.20;49.96
33422;BME280;19763;55.798;37.782;2023-04-06T07:05:23;150612.75;;;13.23;50.14
33422;BME280;19763;55.798;37.782;2023-04-06T07:07:49;150770.88;;;13.86;48.91
33422;BME280;19763;55.798;37.782;2023-04-06T07:10:14;150696.31;;;13.56;48.80
33422;BME280;19763;55.798;37.782;2023-04-06T07:12:40;150920.03;;;14.46;46.87
33422;BME280;19763;55.798;37.782;2023-04-06T07:15:06;151101.47;;;15.18;45.46
33422;BME280;19763;55.798;37.782;2023-04-06T07:17:32;151012.69;;;14.83;44.94
33422;BME280;19763;55.798;37.782;2023-04-06T07:19:57;151073.16;;;15.07;45.64
33422;BME280;19763;55.798;37.782;2023-04-06T07:22:23;151257.28;;;15.81;43.83
33422;BME280;19763;55.798;37.782;2023-04-06T07:24:49;151178.72;;;15.49;43.47
33422;BME280;19763;55.798;37.782;2023-04-06T07:27:14;151092.50;;;15.15;42.98
33422;BME280;19763;55.798;37.782;2023-04-06T07:29:41;150954.78;;;14.60;44.43
33422;BME280;19763;55.798;37.782;2023-04-06T07:32:07;150723.31;;;13.67;46.25
33422;BME280;19763;55.798;37.782;2023-04-06T07:34:33;150768.28;;;13.85;46.21
33422;BME280;19763;55.798;37.782;2023-04-06T07:36:59;150846.75;;;14.17;45.41
33422;BME280;19763;55.798;37.782;2023-04-06T07:39:26;150835.16;;;14.12;45.17
33422;BME280;19763;55.798;37.782;2023-04-06T07:41:52;150696.31;;;13.56;45.93
33422;BME280;19763;55.798;37.782;2023-04-06T07:44:18;150668.03;;;13.45;46.91
33422;BME280;19763;55.798;37.782;2023-04-06T07:46:43;150670.59;;;13.46;47.32
33422;BME280;19763;55.798;37.782;2023-04-06T07:49:09;150470.13;;;12.66;48.13
33422;BME280;19763;55.798;37.782;2023-04-06T07:51:39;150639.69;;;13.34;46.13
33422;BME280;19763;55.798;37.782;2023-04-06T07:54:05;150524.06;;;12.87;47.49
33422;BME280;19763;55.798;37.782;2023-04-06T07:56:31;150632.00;;;13.30;47.72
33422;BME280;19763;55.798;37.782;2023-04-06T07:58:57;150470.13;;;12.66;49.18
33422;BME280;19763;55.798;37.782;2023-04-06T08:01:23;150575.44;;;13.08;47.93
33422;BME280;19763;55.798;37.782;2023-04-06T08:03:49;150683.47;;;13.51;46.90
33422;BME280;19763;55.798;37.782;2023-04-06T08:06:15;150612.75;;;13.23;46.77
33422;BME280;19763;55.798;37.782;2023-04-06T08:08:42;150796.56;;;13.96;45.94
33422;BME280;19763;55.798;37.782;2023-04-06T08:11:08;150902.03;;;14.39;46.09
33422;BME280;19763;55.798;37.782;2023-04-06T08:13:34;150814.56;;;14.04;44.95
33422;BME280;19763;55.798;37.782;2023-04-06T08:16:00;150945.75;;;14.56;45.56
33422;BME280;19763;55.798;37.782;2023-04-06T08:18:26;150815.88;;;14.04;45.09
33422;BME280;19763;55.798;37.782;2023-04-06T08:20:52;150903.28;;;14.39;44.82
33422;BME280;19763;55.798;37.782;2023-04-06T08:23:17;150495.81;;;12.76;47.14
33422;BME280;19763;55.798;37.782;2023-04-06T08:25:43;150544.66;;;12.95;46.39
33422;BME280;19763;55.798;37.782;2023-04-06T08:28:09;150674.47;;;13.48;47.02
33422;BME280;19763;55.798;37.782;2023-04-06T08:30:35;150722.00;;;13.67;46.76
33422;BME280;19763;55.798;37.782;2023-04-06T08:33:01;150709.16;;;13.61;46.01
33422;BME280;19763;55.798;37.782;2023-04-06T08:35:27;150637.16;;;13.33;45.93
33422;BME280;19763;55.798;37.782;2023-04-06T08:37:53;150683.47;;;13.51;45.80
33422;BME280;19763;55.798;37.782;2023-04-06T08:40:18;150522.75;;;12.87;46.61
33422;BME280;19763;55.798;37.782;2023-04-06T08:42:50;150503.50;;;12.79;46.84
33422;BME280;19763;55.798;37.782;2023-04-06T08:45:17;150716.88;;;13.64;45.83
33422;BME280;19763;55.798;37.782;2023-04-06T08:47:50;150848.03;;;14.17;44.00
33422;BME280;19763;55.798;37.782;2023-04-06T08:50:17;150983.13;;;14.71;45.03
33422;BME280;19763;55.798;37.782;2023-04-06T08:52:47;150867.28;;;14.25;43.03
33422;BME280;19763;55.798;37.782;2023-04-06T08:55:13;150671.88;;;13.46;44.21
33422;BME280;19763;55.798;37.782;2023-04-06T08:57:39;150620.44;;;13.26;45.90
33422;BME280;19763;55.798;37.782;2023-04-06T09:00:07;150637.16;;;13.33;44.73
33422;BME280;19763;55.798;37.782;2023-04-06T09:02:38;150691.19;;;13.54;45.04
33422;BME280;19763;55.798;37.782;2023-04-06T09:05:04;150531.78;;;12.90;45.37
33422;BME280;19763;55.798;37.782;2023-04-06T09:07:30;150534.38;;;12.91;45.54
33422;BME280;19763;55.798;37.782;2023-04-06T09:09:56;150612.75;;;13.23;44.42
33422;BME280;19763;55.798;37.782;2023-04-06T09:12:29;150777.28;;;13.89;44.29
33422;BME280;19763;55.798;37.782;2023-04-06T09:14:56;150741.31;;;13.74;43.33
33422;BME280;19763;55.798;37.782;2023-04-06T09:17:27;150786.31;;;13.92;42.63
33422;BME280;19763;55.798;37.782;2023-04-06T09:19:53;150842.84;;;14.15;42.63
33422;BME280;19763;55.798;37.782;2023-04-06T09:22:19;150905.88;;;14.40;41.20
33422;BME280;19763;55.798;37.782;2023-04-06T09:24:47;150785.00;;;13.92;41.81
33422;BME280;19763;55.798;37.782;2023-04-06T09:27:13;150714.28;;;13.63;42.13
33422;BME280;19763;55.798;37.782;2023-04-06T09:29:44;150710.44;;;13.62;42.75
33422;BME280;19763;55.798;37.782;2023-04-06T09:32:11;150697.63;;;13.57;42.88
33422;BME280;19763;55.798;37.782;2023-04-06T09:34:40;150680.91;;;13.50;42.93
33422;BME280;19763;55.798;37.782;2023-04-06T09:37:27;150593.44;;;13.15;42.99
33422;BME280;19763;55.798;37.782;2023-04-06T09:40:02;150714.28;;;13.63;43.40
33422;BME280;19763;55.798;37.782;2023-04-06T09:42:28;150773.44;;;13.87;42.55
33422;BME280;19763;55.798;37.782;2023-04-06T09:44:54;150693.75;;;13.55;42.16
33422;BME280;19763;55.798;37.782;2023-04-06T09:47:20;150606.31;;;13.20;42.59
33422;BME280;19763;55.798;37.782;2023-04-06T09:49:50;150653.88;;;13.39;42.18
33422;BME280;19763;55.798;37.782;2023-04-06T09:52:16;150696.31;;;13.56;42.04
33422;BME280;19763;55.798;37.782;2023-04-06T09:54:43;150664.16;;;13.43;42.27
33422;BME280;19763;55.798;37.782;2023-04-06T10:00:08;150655.19;;;13.40;42.43
33422;BME280;19763;55.798;37.782;2023-04-06T10:07:57;150633.31;;;13.31;42.65
33422;BME280;19763;55.798;37.782;2023-04-06T10:10:25;150723.31;;;13.67;41.89
33422;BME280;19763;55.798;37.782;2023-04-06T10:12:51;150737.44;;;13.73;41.71
33422;BME280;19763;55.798;37.782;2023-04-06T10:15:18;150731.03;;;13.70;42.07
33422;BME280;19763;55.798;37.782;2023-04-06T10:17:44;150671.88;;;13.46;41.94
33422;BME280;19763;55.798;37.782;2023-04-06T10:20:21;150702.72;;;13.59;42.54
33422;BME280;19763;55.798;37.782;2023-04-06T10:25:57;150737.44;;;13.73;42.16
33422;BME280;19763;55.798;37.782;2023-04-06T10:28:24;150774.72;;;13.88;41.97
33422;BME280;19763;55.798;37.782;2023-04-06T10:30:57;150774.72;;;13.88;41.71
33422;BME280;19763;55.798;37.782;2023-04-06T10:33:24;150783.72;;;13.91;41.89
33422;BME280;19763;55.798;37.782;2023-04-06T10:35:50;150839.00;;;14.13;41.21
33422;BME280;19763;55.798;37.782;2023-04-06T10:38:16;150764.41;;;13.84;42.03
33422;BME280;19763;55.798;37.782;2023-04-06T10:40:46;150716.88;;;13.64;42.66
33422;BME280;19763;55.798;37.782;2023-04-06T10:43:22;150761.88;;;13.83;42.15
33422;BME280;19763;55.798;37.782;2023-04-06T10:45:59;150813.28;;;14.03;41.53
33422;BME280;19763;55.798;37.782;2023-04-06T10:48:39;150873.72;;;14.27;41.70
33422;BME280;19763;55.798;37.782;2023-04-06T10:51:11;150840.31;;;14.14;40.86
33422;BME280;19763;55.798;37.782;2023-04-06T10:53:37;150896.91;;;14.37;41.21
33422;BME280;19763;55.798;37.782;2023-04-06T10:56:04;150821.00;;;14.06;41.29
33422;BME280;19763;55.798;37.782;2023-04-06T10:58:34;150824.84;;;14.08;42.15
33422;BME280;19763;55.798;37.782;2023-04-06T11:01:00;150842.84;;;14.15;41.15
33422;BME280;19763;55.798;37.782;2023-04-06T11:03:25;150761.88;;;13.83;41.07
33422;BME280;19763;55.798;37.782;2023-04-06T11:05:52;150832.59;;;14.11;41.69
33422;BME280;19763;55.798;37.782;2023-04-06T11:08:30;150864.75;;;14.24;40.60
33422;BME280;19763;55.798;37.782;2023-04-06T11:16:15;150754.13;;;13.79;41.39
33422;BME280;19763;55.798;37.782;2023-04-06T11:19:04;150725.91;;;13.68;41.03
33422;BME280;19763;55.798;37.782;2023-04-06T11:21:40;150731.03;;;13.70;41.59
33422;BME280;19763;55.798;37.782;2023-04-06T11:24:07;150760.56;;;13.82;40.91
33422;BME280;19763;55.798;37.782;2023-04-06T11:26:49;150799.16;;;13.97;41.59
33422;BME280;19763;55.798;37.782;2023-04-06T11:29:20;150778.56;;;13.89;41.48
33422;BME280;19763;55.798;37.782;2023-04-06T11:31:53;150779.88;;;13.90;41.71
33422;BME280;19763;55.798;37.782;2023-04-06T11:34:23;150774.72;;;13.88;40.99
33422;BME280;19763;55.798;37.782;2023-04-06T11:36:55;150812.03;;;14.03;41.75
33422;BME280;19763;55.798;37.782;2023-04-06T11:39:23;150895.59;;;14.36;41.22
33422;BME280;19763;55.798;37.782;2023-04-06T11:41:57;150938.03;;;14.53;40.63
33422;BME280;19763;55.798;37.782;2023-04-06T11:47:03;150953.50;;;14.59;41.25
33422;BME280;19763;55.798;37.782;2023-04-06T11:49:30;150890.47;;;14.34;40.81
33422;BME280;19763;55.798;37.782;2023-04-06T11:51:57;150957.34;;;14.61;39.66
33422;BME280;19763;55.798;37.782;2023-04-06T11:54:37;150792.72;;;13.95;41.14
33422;BME280;19763;55.798;37.782;2023-04-06T11:57:04;150860.84;;;14.22;40.86
33422;BME280;19763;55.798;37.782;2023-04-06T11:59:33;150788.84;;;13.93;41.58
33422;BME280;19763;55.798;37.782;2023-04-06T12:01:59;150855.72;;;14.20;40.39
33422;BME280;19763;55.798;37.782;2023-04-06T12:04:24;150885.28;;;14.32;40.54
33422;BME280;19763;55.798;37.782;2023-04-06T12:06:50;150945.75;;;14.56;40.05
33422;BME280;19763;55.798;37.782;2023-04-06T12:09:18;150954.78;;;14.60;40.46
33422;BME280;19763;55.798;37.782;2023-04-06T12:11:45;150944.47;;;14.56;40.69
33422;BME280;19763;55.798;37.782;2023-04-06T12:14:11;150891.72;;;14.35;39.51
33422;BME280;19763;55.798;37.782;2023-04-06T12:16:37;150850.59;;;14.18;40.14
33422;BME280;19763;55.798;37.782;2023-04-06T12:19:03;150814.56;;;14.04;40.81
33422;BME280;19763;55.798;37.782;2023-04-06T12:21:30;150860.84;;;14.22;40.45
33422;BME280;19763;55.798;37.782;2023-04-06T12:23:57;150896.91;;;14.37;40.57
33422;BME280;19763;55.798;37.782;2023-04-06T12:26:23;150859.59;;;14.22;41.31
33422;BME280;19763;55.798;37.782;2023-04-06T12:28:50;150944.47;;;14.56;41.23
33422;BME280;19763;55.798;37.782;2023-04-06T12:31:20;150981.81;;;14.71;40.62
33422;BME280;19763;55.798;37.782;2023-04-06T12:33:48;150945.75;;;14.56;39.68
33422;BME280;19763;55.798;37.782;2023-04-06T12:36:18;150959.94;;;14.62;40.18
33422;BME280;19763;55.798;37.782;2023-04-06T12:38:48;150886.63;;;14.32;40.20
33422;BME280;19763;55.798;37.782;2023-04-06T12:41:14;150891.72;;;14.35;40.04
33422;BME280;19763;55.798;37.782;2023-04-06T12:43:41;150835.16;;;14.12;40.92
33422;BME280;19763;55.798;37.782;2023-04-06T12:46:07;150833.88;;;14.11;41.06
33422;BME280;19763;55.798;37.782;2023-04-06T12:48:33;150815.88;;;14.04;42.28
33422;BME280;19763;55.798;37.782;2023-04-06T12:51:01;150848.03;;;14.17;41.11
33422;BME280;19763;55.798;37.782;2023-04-06T12:53:27;150873.72;;;14.27;41.66
33422;BME280;19763;55.798;37.782;2023-04-06T12:55:56;150947.06;;;14.57;41.22
33422;BME280;19763;55.798;37.782;2023-04-06T12:58:22;150939.34;;;14.54;40.91
33422;BME280;19763;55.798;37.782;2023-04-06T13:00:49;150986.97;;;14.73;40.54
33422;BME280;19763;55.798;37.782;2023-04-06T13:03:16;150948.34;;;14.57;40.56